Time;durP1;ratioP1;P1;durP2;ratioP2;P2;SDS_P1;SDS_P2;PMS_P1;PMS_P2;Temp;Humidity;BMP_temperature;BMP_pressure;BME280_temperature;BME280_humidity;BME280_pressure;Samples;Min_cycle;Max_cycle;Signal;HPM_P1;HPM_P2
2023/05/16 00:00:42;;;;;;;1.60;0.40;;;12.60;97.80;;;;;;6091984;23;20389;-80
2023/05/16 00:03:11;;;;;;;1.40;0.30;;;12.50;98.40;;;;;;6067670;23;20377;-80
2023/05/16 00:05:38;;;;;;;1.00;0.33;;;12.40;99.40;;;;;;6068555;23;20400;-80
2023/05/16 00:08:05;;;;;;;0.45;0.30;;;12.40;99.30;;;;;;6067175;23;20373;-80
2023/05/16 00:10:32;;;;;;;0.30;0.30;;;12.30;99.40;;;;;;6068952;23;20386;-80
2023/05/16 00:13:00;;;;;;;0.30;0.20;;;12.30;99.40;;;;;;6068335;23;20381;-80
2023/05/16 00:15:31;;;;;;;0.70;0.40;;;12.20;99.90;;;;;;6068100;23;20440;-80
2023/05/16 00:17:58;;;;;;;0.90;0.40;;;12.20;99.80;;;;;;6068527;23;20373;-80
2023/05/16 00:20:26;;;;;;;1.10;0.40;;;12.10;99.90;;;;;;6067460;23;20411;-80
2023/05/16 00:22:54;;;;;;;0.60;0.30;;;12.10;99.90;;;;;;6068434;23;20383;-80
2023/05/16 00:25:22;;;;;;;0.30;0.30;;;12.00;99.90;;;;;;6067335;23;20405;-80
2023/05/16 00:27:49;;;;;;;0.70;0.32;;;12.00;99.90;;;;;;6068466;23;20385;-81
2023/05/16 00:30:16;;;;;;;1.40;0.85;;;11.90;99.90;;;;;;6067261;23;20387;-81
2023/05/16 00:32:43;;;;;;;1.13;0.50;;;11.90;99.90;;;;;;6067365;23;20919;-80
2023/05/16 00:35:11;;;;;;;0.93;0.50;;;11.80;99.90;;;;;;6092688;23;20378;-80
2023/05/16 00:37:38;;;;;;;0.63;0.40;;;11.80;99.90;;;;;;6068003;23;20733;-80
2023/05/16 00:40:06;;;;;;;0.75;0.30;;;11.70;99.90;;;;;;6067469;23;20693;-80
2023/05/16 00:42:33;;;;;;;0.98;0.40;;;11.70;99.90;;;;;;6068626;23;20373;-80
2023/05/16 00:45:00;;;;;;;0.57;0.40;;;11.60;99.90;;;;;;6068419;23;20446;-81
2023/05/16 00:47:27;;;;;;;1.00;0.60;;;11.60;99.90;;;;;;6067514;23;20380;-80
2023/05/16 00:49:54;;;;;;;1.23;0.40;;;11.50;99.90;;;;;;6068803;23;20393;-80
2023/05/16 00:52:25;;;;;;;1.00;0.43;;;11.50;99.90;;;;;;6067798;23;20378;-80
2023/05/16 00:54:52;;;;;;;1.23;0.40;;;11.40;99.90;;;;;;6068587;23;20377;-80
2023/05/16 00:57:28;;;;;;;0.57;0.40;;;11.40;99.90;;;;;;6069071;23;20384;-80
2023/05/16 01:00:01;;;;;;;1.60;0.50;;;11.30;99.90;;;;;;6069591;23;20390;-81
2023/05/16 01:02:30;;;;;;;0.50;0.40;;;11.30;99.90;;;;;;6067396;23;20447;-80
2023/05/16 16:44:58;;;;;;;2.30;2.10;;;19.40;95.00;;;;;;6092979;23;20424;-81
2023/05/16 16:47:25;;;;;;;2.70;2.10;;;19.30;94.20;;;;;;6068138;23;20385;-82
2023/05/16 16:49:52;;;;;;;2.63;1.90;;;19.20;95.50;;;;;;6068156;23;20378;-82
2023/05/16 16:52:18;;;;;;;1.60;1.50;;;19.10;95.10;;;;;;6068584;23;20704;-81
2023/05/16 16:54:45;;;;;;;4.17;2.40;;;19.00;95.00;;;;;;6068046;23;20388;-82
2023/05/16 16:57:12;;;;;;;3.17;2.40;;;19.00;95.50;;;;;;6068840;23;20373;-81
2023/05/16 16:59:39;;;;;;;2.22;1.60;;;18.90;97.00;;;;;;6068395;23;20373;-81
2023/05/16 17:02:06;;;;;;;1.60;1.50;;;18.90;97.70;;;;;;6068625;23;20381;-82
2023/05/16 17:04:33;;;;;;;1.50;1.40;;;18.90;98.50;;;;;;6093155;23;20742;-81
2023/05/16 17:07:01;;;;;;;1.70;1.42;;;18.90;99.30;;;;;;6068288;23;20444;-81
2023/05/16 17:09:27;;;;;;;2.70;2.50;;;18.90;99.90;;;;;;6068266;23;20374;-82
2023/05/16 17:11:55;;;;;;;2.65;2.33;;;18.90;99.40;;;;;;6092278;23;20374;-82
2023/05/16 17:14:22;;;;;;;1.50;1.40;;;18.80;94.60;;;;;;6068665;23;20380;-81
2023/05/16 17:16:49;;;;;;;1.38;1.20;;;18.70;94.40;;;;;;6067343;23;20847;-82
2023/05/16 17:19:16;;;;;;;1.60;1.40;;;18.60;95.70;;;;;;6068400;23;20378;-82
2023/05/16 17:21:43;;;;;;;1.73;1.30;;;18.60;97.40;;;;;;6067425;23;20720;-81
2023/05/16 17:24:10;;;;;;;1.98;1.45;;;18.70;98.50;;;;;;6091210;23;20923;-81
2023/05/16 17:26:37;;;;;;;1.90;1.17;;;18.60;99.70;;;;;;6089337;23;20383;-82
2023/05/16 17:29:04;;;;;;;1.50;1.35;;;18.60;99.90;;;;;;6067644;23;20422;-87
2023/05/16 17:31:31;;;;;;;2.17;1.10;;;18.60;99.90;;;;;;6092916;23;20386;-83
2023/05/16 17:33:58;;;;;;;3.05;1.88;;;18.60;99.90;;;;;;6067146;23;20440;-80
2023/05/16 17:36:25;;;;;;;4.38;1.98;;;18.70;99.90;;;;;;6068296;23;20381;-80
2023/05/16 17:38:52;;;;;;;218.43;194.18;;;18.70;99.90;;;;;;6066839;23;20374;-80
2023/05/16 17:41:19;;;;;;;800.22;714.33;;;18.70;99.90;;;;;;6068120;23;20373;-78
2023/05/16 17:43:46;;;;;;;591.53;532.72;;;18.70;99.90;;;;;;6091583;23;20381;-80
2023/05/16 17:46:13;;;;;;;281.80;253.43;;;18.70;99.90;;;;;;6068421;23;20385;-80
2023/05/16 17:48:41;;;;;;;116.28;104.57;;;18.80;99.70;;;;;;6067817;23;20377;-80
2023/05/16 17:51:08;;;;;;;48.93;44.03;;;18.80;98.90;;;;;;6067634;23;20389;-80
2023/05/16 17:53:36;;;;;;;26.70;24.23;;;18.80;97.80;;;;;;6067027;23;20387;-79
2023/05/16 17:56:04;;;;;;;18.70;16.95;;;18.80;96.90;;;;;;6068240;23;20392;-78
2023/05/16 17:58:31;;;;;;;28.58;26.08;;;18.80;96.00;;;;;;6069351;23;20374;-82
2023/05/16 18:00:57;;;;;;;28.03;25.67;;;18.80;95.80;;;;;;6068900;23;20385;-78
2023/05/16 18:03:25;;;;;;;31.33;28.87;;;18.90;96.10;;;;;;6069168;23;20768;-77
2023/05/16 18:05:52;;;;;;;38.47;35.67;;;18.90;95.90;;;;;;6068557;23;20389;-80
2023/05/16 18:08:19;;;;;;;9.55;8.85;;;18.90;95.00;;;;;;6069567;23;20385;-80
2023/05/16 18:10:48;;;;;;;4.82;4.53;;;18.80;94.50;;;;;;6069219;23;20843;-78
2023/05/16 18:13:18;;;;;;;3.35;3.05;;;18.80;94.80;;;;;;6069919;23;20381;-83
2023/05/16 18:15:45;;;;;;;3.23;2.63;;;18.80;94.50;;;;;;6092826;23;20732;-79
2023/05/16 18:18:12;;;;;;;2.40;2.20;;;18.70;96.20;;;;;;6069698;23;20377;-82
2023/05/16 18:20:40;;;;;;;1.83;1.73;;;18.60;96.70;;;;;;6094852;23;20388;-81
2023/05/16 18:23:07;;;;;;;1.30;1.20;;;18.50;97.30;;;;;;6068441;23;20366;-81
2023/05/16 18:25:34;;;;;;;1.20;1.10;;;18.50;97.00;;;;;;6069441;23;20871;-82
2023/05/16 18:28:01;;;;;;;1.48;1.38;;;18.50;97.60;;;;;;6066646;23;20401;-81
2023/05/16 18:30:28;;;;;;;1.40;1.30;;;18.50;98.30;;;;;;6094793;23;20386;-81
2023/05/16 18:32:55;;;;;;;1.10;0.90;;;18.40;99.40;;;;;;6093103;23;20385;-81
2023/05/16 18:35:22;;;;;;;1.52;1.00;;;18.30;99.20;;;;;;6070028;23;20373;-81
2023/05/16 18:37:49;;;;;;;2.85;2.40;;;18.30;99.40;;;;;;6068128;23;20866;-81
2023/05/16 18:40:16;;;;;;;1.80;1.65;;;18.20;99.90;;;;;;6070384;23;20831;-81
2023/05/16 18:42:43;;;;;;;2.13;1.38;;;18.10;99.80;;;;;;6094229;23;20389;-81
2023/05/16 18:45:10;;;;;;;1.52;1.42;;;18.10;99.90;;;;;;6068371;23;20832;-81
2023/05/16 18:47:37;;;;;;;2.63;2.20;;;18.10;99.90;;;;;;6094282;23;20871;-82
2023/05/16 18:50:05;;;;;;;2.25;2.10;;;18.00;99.90;;;;;;6068913;23;20401;-82
2023/05/16 18:52:34;;;;;;;1.95;1.65;;;17.90;99.90;;;;;;6069331;23;20378;-81
2023/05/16 18:55:01;;;;;;;1.38;1.27;;;17.80;99.90;;;;;;6068163;23;20378;-80
2023/05/16 18:57:28;;;;;;;4.45;3.60;;;17.70;99.90;;;;;;6069644;23;20779;-81
2023/05/16 18:59:55;;;;;;;3.00;2.75;;;17.70;99.90;;;;;;6068256;23;20378;-80
2023/05/16 19:02:22;;;;;;;2.55;2.35;;;17.50;99.90;;;;;;6069695;23;20369;-80
2023/05/16 19:05:08;;;;;;;3.10;2.80;;;17.50;99.90;;;;;;6071671;23;20389;-81
2023/05/16 19:07:35;;;;;;;2.75;2.55;;;17.40;99.90;;;;;;6069418;23;20408;-81
2023/05/16 19:10:03;;;;;;;1.85;1.75;;;17.30;99.90;;;;;;6068376;23;20725;-80
2023/05/16 19:12:30;;;;;;;3.67;2.67;;;17.30;99.90;;;;;;6094615;23;20373;-80
2023/05/16 19:14:57;;;;;;;3.22;2.20;;;17.30;99.90;;;;;;6067745;23;20376;-80
2023/05/16 19:17:24;;;;;;;2.53;2.25;;;17.30;99.90;;;;;;6070123;23;20370;-80
2023/05/16 19:19:51;;;;;;;2.47;2.28;;;17.20;99.90;;;;;;6092325;23;20408;-80
2023/05/16 19:22:18;;;;;;;2.33;2.13;;;17.10;99.90;;;;;;6069463;23;20377;-80
2023/05/16 19:24:45;;;;;;;2.83;2.58;;;17.10;99.90;;;;;;6092823;23;20381;-80
2023/05/16 19:27:12;;;;;;;2.97;2.50;;;17.00;99.90;;;;;;6068885;23;20710;-80
2023/05/16 19:29:39;;;;;;;1.53;1.43;;;17.00;99.90;;;;;;6068140;23;20429;-80
2023/05/16 19:32:06;;;;;;;1.70;1.60;;;16.90;99.90;;;;;;6068066;23;20381;-81
2023/05/16 19:34:34;;;;;;;2.25;1.83;;;16.90;99.90;;;;;;6068797;23;20404;-81
2023/05/16 19:37:02;;;;;;;1.90;1.40;;;16.90;99.90;;;;;;6068149;23;20377;-80
2023/05/16 19:39:30;;;;;;;1.40;1.30;;;16.80;99.90;;;;;;6069015;23;20455;-81
2023/05/16 19:41:59;;;;;;;1.42;1.30;;;16.80;99.90;;;;;;6067772;23;20453;-81
2023/05/16 19:44:34;;;;;;;1.98;1.60;;;16.80;99.90;;;;;;6069412;23;20385;-81
2023/05/16 19:47:01;;;;;;;3.60;2.22;;;16.70;99.90;;;;;;6066526;23;20459;-80
2023/05/16 19:49:30;;;;;;;2.50;2.30;;;16.70;99.90;;;;;;6093747;23;20403;-80
2023/05/16 19:51:57;;;;;;;1.80;1.70;;;16.60;99.90;;;;;;6067636;23;20720;-81
2023/05/16 19:54:24;;;;;;;2.22;2.03;;;16.50;99.90;;;;;;6068701;23;20369;-81
2023/05/16 19:56:51;;;;;;;3.00;2.80;;;16.50;99.90;;;;;;6092789;23;20377;-80
2023/05/16 19:59:19;;;;;;;2.40;2.20;;;16.40;99.90;;;;;;6066990;23;20385;-81
2023/05/16 20:01:46;;;;;;;1.90;1.80;;;16.30;99.90;;;;;;6068417;23;20415;-81
2023/05/16 20:04:13;;;;;;;1.60;1.50;;;16.30;99.90;;;;;;6092316;23;20385;-81
2023/05/16 20:06:40;;;;;;;2.20;2.00;;;16.30;99.90;;;;;;6093122;23;20433;-82
2023/05/16 20:09:07;;;;;;;3.40;2.72;;;16.20;99.90;;;;;;6067539;23;20385;-81
2023/05/16 20:11:34;;;;;;;2.65;2.45;;;16.20;99.90;;;;;;6093802;23;20373;-81
2023/05/16 20:14:01;;;;;;;2.08;1.98;;;16.10;99.90;;;;;;6067808;23;20377;-81
2023/05/16 20:16:28;;;;;;;2.47;2.28;;;16.00;99.90;;;;;;6068232;23;20377;-81
2023/05/16 20:18:55;;;;;;;4.30;3.78;;;16.00;99.90;;;;;;6065525;23;20419;-78
2023/05/16 20:21:22;;;;;;;3.38;3.08;;;16.00;99.90;;;;;;6090655;23;20373;-80
2023/05/16 20:23:49;;;;;;;2.70;2.50;;;15.90;99.90;;;;;;6067811;23;20382;-80
2023/05/16 20:26:16;;;;;;;3.45;2.85;;;15.80;99.90;;;;;;6067096;23;20374;-81
2023/05/16 20:28:43;;;;;;;4.07;3.70;;;15.80;99.90;;;;;;6067947;23;20384;-80
2023/05/16 20:31:10;;;;;;;3.92;3.63;;;15.80;99.90;;;;;;6066947;23;20381;-81
2023/05/16 20:33:37;;;;;;;4.43;4.03;;;15.70;99.90;;;;;;6068350;23;20385;-81
2023/05/16 20:36:04;;;;;;;3.53;3.20;;;15.70;99.90;;;;;;6067169;23;20373;-81
2023/05/16 20:38:31;;;;;;;2.67;2.47;;;15.60;99.90;;;;;;6093179;23;20369;-80
2023/05/16 20:40:58;;;;;;;2.50;2.30;;;15.60;99.90;;;;;;6067335;23;20377;-81
2023/05/16 20:43:25;;;;;;;2.67;2.47;;;15.50;99.90;;;;;;6067600;23;20711;-81
2023/05/16 20:45:52;;;;;;;2.47;2.28;;;15.50;99.90;;;;;;6092653;23;20389;-81
2023/05/16 20:48:19;;;;;;;1.92;1.83;;;15.40;99.90;;;;;;6067263;23;20373;-82
2023/05/16 20:50:46;;;;;;;2.60;2.40;;;15.40;99.90;;;;;;6067971;23;20381;-81
2023/05/16 20:53:13;;;;;;;4.45;3.35;;;15.30;99.90;;;;;;6067053;23;20374;-81
2023/05/16 20:55:40;;;;;;;2.55;2.15;;;15.30;99.90;;;;;;6068111;23;20392;-81
2023/05/16 20:58:07;;;;;;;2.75;2.55;;;15.20;99.90;;;;;;6091741;23;20380;-81
2023/05/16 21:00:34;;;;;;;3.25;2.75;;;15.20;99.90;;;;;;6068180;23;20377;-80
2023/05/16 21:03:01;;;;;;;4.22;3.50;;;15.10;99.90;;;;;;6066482;23;20681;-80
2023/05/16 21:05:28;;;;;;;2.60;2.20;;;15.00;99.90;;;;;;6067955;23;20376;-81
2023/05/16 21:07:55;;;;;;;2.53;2.33;;;15.00;99.90;;;;;;6068038;23;20377;-80
2023/05/16 21:10:22;;;;;;;4.15;3.00;;;14.90;99.90;;;;;;6089871;23;20519;-82
2023/05/16 21:12:49;;;;;;;3.50;3.08;;;14.80;99.90;;;;;;6067256;23;20374;-84
2023/05/16 21:15:16;;;;;;;3.17;2.88;;;14.70;99.90;;;;;;6063972;23;20377;-82
2023/05/16 21:17:43;;;;;;;2.33;2.22;;;14.70;99.90;;;;;;6066404;23;20378;-81
2023/05/16 21:20:11;;;;;;;2.55;2.30;;;14.70;99.90;;;;;;6067143;23;20716;-83
2023/05/16 21:22:38;;;;;;;1.80;1.70;;;14.60;99.90;;;;;;6067529;23;20384;-83
2023/05/16 21:25:05;;;;;;;2.83;2.63;;;14.60;99.90;;;;;;6067596;23;20378;-83
2023/05/16 21:27:32;;;;;;;3.15;2.00;;;14.60;99.90;;;;;;6093067;23;20867;-83
2023/05/16 21:29:59;;;;;;;2.35;2.15;;;14.60;99.90;;;;;;6093888;23;20749;-82
2023/05/16 21:32:30;;;;;;;2.60;2.40;;;14.50;99.90;;;;;;6093913;23;20372;-81
2023/05/16 21:34:59;;;;;;;3.50;3.20;;;14.50;99.90;;;;;;6095659;23;20436;-82
2023/05/16 21:37:27;;;;;;;4.18;3.78;;;14.50;99.90;;;;;;6068654;23;20404;-81
2023/05/16 21:39:53;;;;;;;3.40;3.10;;;14.40;99.90;;;;;;6094184;23;20389;-81
2023/05/16 21:42:20;;;;;;;3.05;2.85;;;14.40;99.90;;;;;;6068841;23;20393;-82
2023/05/16 21:44:47;;;;;;;3.20;2.70;;;14.40;99.90;;;;;;6095092;23;20720;-82
2023/05/16 21:47:14;;;;;;;3.60;3.25;;;14.40;99.90;;;;;;6093632;23;20381;-82
2023/05/16 21:49:41;;;;;;;3.13;2.83;;;14.40;99.90;;;;;;6070003;23;20384;-82
2023/05/16 21:52:09;;;;;;;3.10;2.80;;;14.30;99.90;;;;;;6068520;23;20385;-83
2023/05/16 21:54:36;;;;;;;2.08;1.88;;;14.30;99.90;;;;;;6070058;23;20381;-82
2023/05/16 21:57:03;;;;;;;1.52;1.42;;;14.40;99.90;;;;;;6070096;23;20373;-82
2023/05/16 21:59:30;;;;;;;1.35;1.10;;;14.30;99.90;;;;;;6094094;23;20373;-81
2023/05/16 22:01:57;;;;;;;0.88;0.82;;;14.30;99.90;;;;;;6046019;23;20397;-82
2023/05/16 22:04:24;;;;;;;1.25;0.90;;;14.30;99.90;;;;;;6069231;23;20437;-82
2023/05/16 22:06:51;;;;;;;0.65;0.30;;;14.20;99.90;;;;;;6069478;23;20393;-83
2023/05/16 22:09:18;;;;;;;0.50;0.10;;;14.20;99.90;;;;;;6068806;23;20436;-82
2023/05/16 22:11:44;;;;;;;0.17;0.00;;;14.30;80.20;;;;;;6070197;23;20381;-82
2023/05/16 22:14:11;;;;;;;0.10;0.00;;;14.40;72.30;;;;;;6068140;23;20385;-82
2023/05/16 22:16:39;;;;;;;0.10;0.00;;;14.50;72.80;;;;;;6069987;23;20376;-82
2023/05/16 22:19:07;;;;;;;0.10;0.10;;;14.60;66.70;;;;;;6069555;23;20388;-81
2023/05/16 22:21:34;;;;;;;2.55;0.05;;;14.80;61.30;;;;;;6094200;23;20373;-82
2023/05/16 22:24:02;;;;;;;0.08;0.00;;;15.00;57.80;;;;;;6069581;23;20409;-82
2023/05/16 22:26:28;;;;;;;0.10;0.00;;;15.20;56.80;;;;;;6069014;23;20386;-82
2023/05/16 22:28:56;;;;;;;0.00;0.00;;;15.30;55.90;;;;;;6069175;23;20377;-81
2023/05/16 22:31:22;;;;;;;0.20;0.10;;;15.40;55.90;;;;;;6068959;23;20381;-82
2023/05/16 22:33:49;;;;;;;0.33;0.00;;;15.50;52.80;;;;;;6069003;23;20381;-82
2023/05/16 22:36:16;;;;;;;0.60;0.10;;;15.70;52.00;;;;;;6068981;23;20948;-82
2023/05/16 22:38:43;;;;;;;0.20;0.00;;;15.80;52.10;;;;;;6069740;23;20432;-81
2023/05/16 22:41:10;;;;;;;0.10;0.00;;;16.00;50.30;;;;;;6069927;23;20455;-82
2023/05/16 22:43:38;;;;;;;0.07;0.00;;;16.00;50.30;;;;;;6088170;23;20373;-83
2023/05/16 22:46:05;;;;;;;0.00;0.00;;;16.10;50.60;;;;;;6064676;23;20390;-81
2023/05/16 22:48:32;;;;;;;0.00;0.00;;;16.20;48.60;;;;;;6063771;23;20383;-82
2023/05/16 22:51:00;;;;;;;0.10;0.00;;;16.40;48.00;;;;;;6064871;23;20381;-82
2023/05/16 22:53:28;;;;;;;0.00;0.00;;;16.50;46.20;;;;;;6064137;23;20378;-81
2023/05/16 22:55:54;;;;;;;0.10;0.10;;;16.70;45.40;;;;;;6046073;23;20383;-82
2023/05/16 22:58:21;;;;;;;0.00;0.00;;;16.80;45.60;;;;;;6036375;23;20878;-82
2023/05/16 23:00:48;;;;;;;0.10;0.00;;;16.80;45.60;;;;;;6036554;23;20405;-82
2023/05/16 23:03:15;;;;;;;0.10;0.00;;;16.90;44.70;;;;;;6036173;23;20412;-81
2023/05/16 23:05:42;;;;;;;0.20;0.00;;;16.90;45.40;;;;;;6036092;23;20410;-81
2023/05/16 23:08:09;;;;;;;0.17;0.00;;;17.10;44.50;;;;;;6035985;23;20444;-83
2023/05/16 23:10:36;;;;;;;0.30;0.00;;;17.10;43.60;;;;;;6035283;23;20384;-83
2023/05/16 23:13:03;;;;;;;0.10;0.00;;;17.20;43.20;;;;;;6036081;23;20392;-82
2023/05/16 23:15:30;;;;;;;0.00;0.00;;;17.30;42.40;;;;;;6034741;23;20915;-81
2023/05/16 23:17:57;;;;;;;0.00;0.00;;;17.30;42.90;;;;;;6036255;23;20377;-83
2023/05/16 23:20:24;;;;;;;0.00;0.00;;;17.40;42.40;;;;;;6035636;23;20380;-84
2023/05/16 23:22:51;;;;;;;0.30;0.00;;;17.40;42.40;;;;;;6035358;23;20756;-82
2023/05/16 23:25:18;;;;;;;0.00;0.00;;;17.50;41.80;;;;;;6059243;23;20755;-82
2023/05/16 23:27:45;;;;;;;0.00;0.00;;;17.50;41.90;;;;;;6035456;23;20389;-81
2023/05/16 23:30:12;;;;;;;0.00;0.00;;;17.50;41.70;;;;;;6036153;23;20385;-82
2023/05/16 23:32:39;;;;;;;0.00;0.00;;;17.50;41.30;;;;;;6035441;23;20685;-82
2023/05/16 23:35:06;;;;;;;0.00;0.00;;;17.60;41.40;;;;;;6036090;23;20380;-82
2023/05/16 23:37:33;;;;;;;0.30;0.00;;;17.60;41.90;;;;;;6034944;23;20453;-83
2023/05/16 23:40:00;;;;;;;0.20;0.10;;;17.60;40.90;;;;;;6035862;23;20714;-81
2023/05/16 23:42:27;;;;;;;0.10;0.00;;;17.70;40.00;;;;;;6034717;23;20938;-83
2023/05/16 23:44:54;;;;;;;0.10;0.00;;;17.70;40.10;;;;;;6036128;23;20441;-82
2023/05/16 23:47:21;;;;;;;0.00;0.00;;;17.70;40.80;;;;;;6034275;23;20389;-81
2023/05/16 23:49:48;;;;;;;0.20;0.00;;;17.70;40.20;;;;;;6036099;23;20380;-82
2023/05/16 23:52:15;;;;;;;0.00;0.00;;;17.80;39.40;;;;;;6036647;23;20385;-83
2023/05/16 23:54:44;;;;;;;0.20;0.00;;;17.80;39.40;;;;;;6047060;23;20389;-82
2023/05/16 23:57:11;;;;;;;0.20;0.00;;;17.80;39.80;;;;;;6036793;23;20385;-82
2023/05/16 23:59:38;;;;;;;1.50;0.10;;;17.80;39.80;;;;;;6035397;23;20448;-82
